Friday, July 20, 2018, 12:44 PM EDT
Back to Local

KMGW, Morgantown Muni-hart Field

Location: Morgantown, WV, United States Lat: 39.65
Local Time: 12:44 PM EDT (16:44 GMT) Lon: -79.917
Time Zone: US/Eastern Elev: 1246 ft

Show me the last for .
Show Coded

Time T Td Feel RH Dir Speed Gust Alt SLP Vis Weather Sky Remarks
2018-07-20 11:53 83 60 84 46 210° 8 - 30.04 30.01 10 CLR None
2018-07-20 10:53 82 60 83 47 Variable 6 - 30.05 30.01 10 CLR None
2018-07-20 09:53 79 60 80 52 150° 9 - 30.06 30.02 10 CLR None
2018-07-20 08:53 74 59 77 59 140° 7 - 30.07 30.03 10 CLR None
2018-07-20 07:53 71 57 76 61 160° 10 - 30.06 30.03 10 CLR 6-hr Min Temp (8am): 66.9°F
6-hr Max Temp (8am): 71.1°F
2018-07-20 06:53 69 57 - 65 160° 6 - 30.06 30.02 10 FEW070 None
2018-07-20 05:53 68 57 - 67 160° 6 - 30.05 30.02 10 FEW070 None
2018-07-20 04:53 69 56 - 62 170° 9 - 30.05 30.02 10 CLR None
2018-07-20 03:53 69 56 - 62 150° 8 - 30.06 30.03 10 CLR None
2018-07-20 02:53 70 57 - 63 160° 10 - 30.05 30.02 10 CLR None
2018-07-20 01:53 71 57 76 61 150° 9 - 30.06 30.03 10 CLR 6-hr Min Temp (2am): 70.0°F
6-hr Max Temp (2am): 82.9°F
2018-07-20 00:53 72 57 76 59 150° 13 - 30.07 30.04 10 CLR 24-hr Min Temp (1am): 55.9°F
24-hr Max Temp (1am): 84.9°F
2018-07-19 23:53 73 57 77 57 170° 8 - 30.07 30.04 10 CLR None
2018-07-19 22:53 74 57 77 55 130° 7 - 30.06 30.03 10 CLR None
2018-07-19 21:53 75 58 78 55 120° 6 - 30.05 30.02 10 CLR None
2018-07-19 20:53 77 59 79 53 110° 5 - 30.04 30.01 10 CLR None
2018-07-19 19:53 83 56 - 39 - Calm - 30.04 30.01 10 FEW080 6-hr Min Temp (8pm): 81.0°F
6-hr Max Temp (8pm): 84.9°F
2018-07-19 18:53 83 55 - 38 - Calm - 30.04 30.02 10 FEW070 None
2018-07-19 17:53 84 53 - 34 210° 7 - 30.05 30.03 10 SCT075 None
2018-07-19 16:53 84 54 - 35 150° 9 - 30.06 30.03 10 CLR None
2018-07-19 15:53 84 52 - 33 160° 7 - 30.06 30.04 10 CLR None
2018-07-19 14:53 83 52 - 34 170° 6 - 30.08 30.06 10 CLR None
2018-07-19 13:53 82 52 - 35 Variable 3 - 30.10 30.07 10 CLR 6-hr Min Temp (2pm): 60.1°F
6-hr Max Temp (2pm): 82.9°F
2018-07-19 12:53 81 53 - 38 - Calm - 30.12 30.09 10 CLR None

Support USWX by starting your Amazon purchase here.